Flight Briefing for CPX796

Departure Arrival
Guarulhos International Airport (SBGR)
Click to view FAA NOTAMS
Miami International Airport (KMIA)
Click to view FAA NOTAMS
Departure Time Arrival Time
N/A N/A
Aircraft Distance
B747-400BCF 3554nm
Departure METAR Arrival METAR
SBGR 221100Z 10005KT 9999 BKN017 18/17 Q1019 KMIA 221053Z 33009G15KT 10SM CLR 15/12 A3005 RMK AO2 SLP176 T01500117
Suggested Route
UKBE1C UKBEV ASTOB UM417 OBGAT UZ21 VUMPI UL795 URSUS FLIPR6


View recent IFR Routes data
Notes



Charts and Procedures

Charts for SBGR
No chart available
Charts for KMIA
No chart available

Windy.com Weather Map